sensor_id;sensor_type;location;lat;lon;timestamp;temperature;humidity
31542;DHT22;18152;49.986;8.646;2023-07-20T05:04:14;14.80;99.90
31542;DHT22;18152;49.986;8.646;2023-07-20T05:06:39;14.80;99.90
31542;DHT22;18152;49.986;8.646;2023-07-20T05:09:05;14.90;99.90
31542;DHT22;18152;49.986;8.646;2023-07-20T05:11:33;15.00;99.90
31542;DHT22;18152;49.986;8.646;2023-07-20T05:13:59;15.00;99.90
31542;DHT22;18152;49.986;8.646;2023-07-20T05:16:24;15.10;99.90
31542;DHT22;18152;49.986;8.646;2023-07-20T05:18:50;15.20;99.90
31542;DHT22;18152;49.986;8.646;2023-07-20T05:21:15;15.20;99.90
31542;DHT22;18152;49.986;8.646;2023-07-20T05:23:41;15.20;99.90
31542;DHT22;18152;49.986;8.646;2023-07-20T05:26:06;15.30;99.90
31542;DHT22;18152;49.986;8.646;2023-07-20T05:28:32;15.20;99.90
31542;DHT22;18152;49.986;8.646;2023-07-20T05:30:58;15.40;99.90
31542;DHT22;18152;49.986;8.646;2023-07-20T05:33:25;15.50;99.90
31542;DHT22;18152;49.986;8.646;2023-07-20T05:35:50;15.70;99.90
31542;DHT22;18152;49.986;8.646;2023-07-20T05:38:16;15.70;99.90
31542;DHT22;18152;49.986;8.646;2023-07-20T05:40:42;15.90;99.90
31542;DHT22;18152;49.986;8.646;2023-07-20T05:43:11;16.20;99.90
31542;DHT22;18152;49.986;8.646;2023-07-20T05:45:36;16.40;99.90
31542;DHT22;18152;49.986;8.646;2023-07-20T05:48:02;16.50;99.90
31542;DHT22;18152;49.986;8.646;2023-07-20T05:50:28;16.80;99.90
31542;DHT22;18152;49.986;8.646;2023-07-20T05:52:54;17.00;99.90
31542;DHT22;18152;49.986;8.646;2023-07-20T05:55:20;17.30;99.90
31542;DHT22;18152;49.986;8.646;2023-07-20T05:57:46;17.40;99.90
31542;DHT22;18152;49.986;8.646;2023-07-20T06:00:13;17.50;99.90
31542;DHT22;18152;49.986;8.646;2023-07-20T06:02:39;17.60;99.90
31542;DHT22;18152;49.986;8.646;2023-07-20T06:05:06;17.70;99.90
31542;DHT22;18152;49.986;8.646;2023-07-20T06:07:36;17.70;99.90
31542;DHT22;18152;49.986;8.646;2023-07-20T06:10:01;17.90;99.90
31542;DHT22;18152;49.986;8.646;2023-07-20T06:12:27;18.10;99.90
31542;DHT22;18152;49.986;8.646;2023-07-20T06:14:53;18.20;99.90
31542;DHT22;18152;49.986;8.646;2023-07-20T06:17:19;18.20;99.90
31542;DHT22;18152;49.986;8.646;2023-07-20T06:19:44;18.20;99.90
31542;DHT22;18152;49.986;8.646;2023-07-20T06:22:10;18.40;99.90
31542;DHT22;18152;49.986;8.646;2023-07-20T06:24:35;18.40;99.90
31542;DHT22;18152;49.986;8.646;2023-07-20T06:27:01;18.60;99.90
31542;DHT22;18152;49.986;8.646;2023-07-20T06:29:27;18.60;99.90
31542;DHT22;18152;49.986;8.646;2023-07-20T06:31:53;18.70;99.90
31542;DHT22;18152;49.986;8.646;2023-07-20T06:34:19;18.90;99.90
31542;DHT22;18152;49.986;8.646;2023-07-20T06:36:44;19.00;99.90
31542;DHT22;18152;49.986;8.646;2023-07-20T06:39:10;19.00;99.90
31542;DHT22;18152;49.986;8.646;2023-07-20T06:41:36;18.90;99.90
31542;DHT22;18152;49.986;8.646;2023-07-20T06:44:02;18.90;99.90
31542;DHT22;18152;49.986;8.646;2023-07-20T06:46:28;18.90;99.90
31542;DHT22;18152;49.986;8.646;2023-07-20T06:48:54;18.90;99.90
31542;DHT22;18152;49.986;8.646;2023-07-20T06:51:20;19.00;99.90
31542;DHT22;18152;49.986;8.646;2023-07-20T06:53:45;19.10;99.90
31542;DHT22;18152;49.986;8.646;2023-07-20T06:56:11;19.10;99.90
31542;DHT22;18152;49.986;8.646;2023-07-20T06:58:37;19.00;99.90
31542;DHT22;18152;49.986;8.646;2023-07-20T07:01:07;19.00;99.90
31542;DHT22;18152;49.986;8.646;2023-07-20T07:03:33;19.10;99.90
31542;DHT22;18152;49.986;8.646;2023-07-20T07:05:59;19.30;99.90
31542;DHT22;18152;49.986;8.646;2023-07-20T07:08:25;19.40;99.90
31542;DHT22;18152;49.986;8.646;2023-07-20T07:10:51;19.50;99.90
31542;DHT22;18152;49.986;8.646;2023-07-20T07:13:17;19.80;99.90
31542;DHT22;18152;49.986;8.646;2023-07-20T07:15:43;20.00;99.90
31542;DHT22;18152;49.986;8.646;2023-07-20T07:18:08;20.30;99.90
31542;DHT22;18152;49.986;8.646;2023-07-20T07:20:34;20.40;99.90
31542;DHT22;18152;49.986;8.646;2023-07-20T07:22:59;20.30;99.90
31542;DHT22;18152;49.986;8.646;2023-07-20T07:25:26;20.20;99.90
31542;DHT22;18152;49.986;8.646;2023-07-20T07:27:53;20.20;99.90
31542;DHT22;18152;49.986;8.646;2023-07-20T07:30:18;20.10;99.90
31542;DHT22;18152;49.986;8.646;2023-07-20T07:32:44;20.00;99.90
31542;DHT22;18152;49.986;8.646;2023-07-20T07:35:09;19.80;99.90
31542;DHT22;18152;49.986;8.646;2023-07-20T07:37:35;19.60;99.90
31542;DHT22;18152;49.986;8.646;2023-07-20T07:40:02;19.60;99.90
31542;DHT22;18152;49.986;8.646;2023-07-20T07:42:29;19.70;99.90
31542;DHT22;18152;49.986;8.646;2023-07-20T07:44:54;19.70;99.90
31542;DHT22;18152;49.986;8.646;2023-07-20T07:47:20;19.60;99.90
31542;DHT22;18152;49.986;8.646;2023-07-20T07:49:45;20.00;99.90
31542;DHT22;18152;49.986;8.646;2023-07-20T07:52:11;20.60;99.90
31542;DHT22;18152;49.986;8.646;2023-07-20T07:54:37;20.80;99.90
31542;DHT22;18152;49.986;8.646;2023-07-20T07:57:02;20.70;99.90
31542;DHT22;18152;49.986;8.646;2023-07-20T07:59:28;20.70;99.90
31542;DHT22;18152;49.986;8.646;2023-07-20T08:01:53;20.90;99.90
31542;DHT22;18152;49.986;8.646;2023-07-20T08:04:19;20.90;99.90
31542;DHT22;18152;49.986;8.646;2023-07-20T08:06:45;20.90;99.90
31542;DHT22;18152;49.986;8.646;2023-07-20T08:09:10;21.10;99.90
31542;DHT22;18152;49.986;8.646;2023-07-20T08:11:36;21.50;99.90
31542;DHT22;18152;49.986;8.646;2023-07-20T08:14:01;21.40;99.90
31542;DHT22;18152;49.986;8.646;2023-07-20T08:16:27;21.20;99.90
31542;DHT22;18152;49.986;8.646;2023-07-20T08:18:53;21.10;99.90
31542;DHT22;18152;49.986;8.646;2023-07-20T08:21:19;20.90;99.90
31542;DHT22;18152;49.986;8.646;2023-07-20T08:23:44;20.70;99.90
31542;DHT22;18152;49.986;8.646;2023-07-20T08:26:10;20.70;99.90
31542;DHT22;18152;49.986;8.646;2023-07-20T08:28:35;21.00;99.90
31542;DHT22;18152;49.986;8.646;2023-07-20T08:31:01;21.00;99.90
31542;DHT22;18152;49.986;8.646;2023-07-20T08:33:28;21.00;99.90
31542;DHT22;18152;49.986;8.646;2023-07-20T08:35:55;21.00;99.90
31542;DHT22;18152;49.986;8.646;2023-07-20T08:38:21;21.20;99.90
31542;DHT22;18152;49.986;8.646;2023-07-20T08:40:47;21.90;99.90
31542;DHT22;18152;49.986;8.646;2023-07-20T08:43:13;22.60;99.90
31542;DHT22;18152;49.986;8.646;2023-07-20T08:45:40;22.50;99.90
31542;DHT22;18152;49.986;8.646;2023-07-20T08:48:08;22.90;99.90
31542;DHT22;18152;49.986;8.646;2023-07-20T08:50:34;23.30;99.10
31542;DHT22;18152;49.986;8.646;2023-07-20T08:53:00;22.80;98.30
31542;DHT22;18152;49.986;8.646;2023-07-20T08:55:27;22.20;98.40
31542;DHT22;18152;49.986;8.646;2023-07-20T08:57:58;22.00;99.90
31542;DHT22;18152;49.986;8.646;2023-07-20T09:00:25;22.60;98.30
31542;DHT22;18152;49.986;8.646;2023-07-20T09:02:53;22.70;97.90
31542;DHT22;18152;49.986;8.646;2023-07-20T09:05:23;22.30;99.10
31542;DHT22;18152;49.986;8.646;2023-07-20T09:07:50;21.90;98.80
31542;DHT22;18152;49.986;8.646;2023-07-20T09:10:16;21.70;99.40
31542;DHT22;18152;49.986;8.646;2023-07-20T09:12:43;21.30;99.90
31542;DHT22;18152;49.986;8.646;2023-07-20T09:15:10;20.90;99.90
31542;DHT22;18152;49.986;8.646;2023-07-20T09:17:36;20.90;99.90
31542;DHT22;18152;49.986;8.646;2023-07-20T09:20:04;20.70;99.90
31542;DHT22;18152;49.986;8.646;2023-07-20T09:22:34;21.10;99.90
31542;DHT22;18152;49.986;8.646;2023-07-20T09:24:59;21.80;99.90
31542;DHT22;18152;49.986;8.646;2023-07-20T09:27:38;22.60;99.60
31542;DHT22;18152;49.986;8.646;2023-07-20T09:30:05;23.00;99.70
31542;DHT22;18152;49.986;8.646;2023-07-20T09:32:48;23.40;99.40
31542;DHT22;18152;49.986;8.646;2023-07-20T09:35:14;23.40;97.60
31542;DHT22;18152;49.986;8.646;2023-07-20T09:37:45;23.10;98.00
31542;DHT22;18152;49.986;8.646;2023-07-20T09:40:15;22.20;96.50
31542;DHT22;18152;49.986;8.646;2023-07-20T09:42:41;21.90;99.30
31542;DHT22;18152;49.986;8.646;2023-07-20T09:45:08;21.70;96.10
31542;DHT22;18152;49.986;8.646;2023-07-20T09:47:38;21.40;97.10
31542;DHT22;18152;49.986;8.646;2023-07-20T09:50:05;21.50;99.90
31542;DHT22;18152;49.986;8.646;2023-07-20T09:52:37;21.40;99.90
31542;DHT22;18152;49.986;8.646;2023-07-20T09:55:03;21.30;99.90
31542;DHT22;18152;49.986;8.646;2023-07-20T09:57:29;21.90;99.90
31542;DHT22;18152;49.986;8.646;2023-07-20T09:59:56;22.80;99.90
31542;DHT22;18152;49.986;8.646;2023-07-20T10:02:33;23.90;97.80
31542;DHT22;18152;49.986;8.646;2023-07-20T10:05:02;23.60;98.60
31542;DHT22;18152;49.986;8.646;2023-07-20T10:07:30;23.50;99.90
31542;DHT22;18152;49.986;8.646;2023-07-20T10:09:59;23.00;99.90
31542;DHT22;18152;49.986;8.646;2023-07-20T10:12:27;23.50;98.20
31542;DHT22;18152;49.986;8.646;2023-07-20T10:15:04;24.40;96.80
31542;DHT22;18152;49.986;8.646;2023-07-20T10:17:30;24.30;98.70
31542;DHT22;18152;49.986;8.646;2023-07-20T10:19:57;24.30;95.50
31542;DHT22;18152;49.986;8.646;2023-07-20T10:22:27;24.50;98.60
31542;DHT22;18152;49.986;8.646;2023-07-20T10:24:53;25.10;95.90
31542;DHT22;18152;49.986;8.646;2023-07-20T10:27:20;25.40;96.80
31542;DHT22;18152;49.986;8.646;2023-07-20T10:29:47;25.30;93.20
31542;DHT22;18152;49.986;8.646;2023-07-20T10:32:13;24.60;98.20
31542;DHT22;18152;49.986;8.646;2023-07-20T10:34:39;23.90;95.70
31542;DHT22;18152;49.986;8.646;2023-07-20T10:37:05;23.50;95.50
31542;DHT22;18152;49.986;8.646;2023-07-20T10:39:31;23.10;95.80
31542;DHT22;18152;49.986;8.646;2023-07-20T10:42:08;22.70;97.70
31542;DHT22;18152;49.986;8.646;2023-07-20T10:44:37;22.60;96.70
31542;DHT22;18152;49.986;8.646;2023-07-20T10:47:07;22.40;96.70
31542;DHT22;18152;49.986;8.646;2023-07-20T10:49:34;22.00;97.20
31542;DHT22;18152;49.986;8.646;2023-07-20T10:52:04;21.60;99.70
31542;DHT22;18152;49.986;8.646;2023-07-20T10:56:57;21.30;99.90
31542;DHT22;18152;49.986;8.646;2023-07-20T11:01:49;21.10;99.90
31542;DHT22;18152;49.986;8.646;2023-07-20T11:04:15;20.80;99.90
31542;DHT22;18152;49.986;8.646;2023-07-20T11:06:46;20.80;99.90
31542;DHT22;18152;49.986;8.646;2023-07-20T11:09:13;20.80;99.90
31542;DHT22;18152;49.986;8.646;2023-07-20T11:11:44;20.90;99.90
31542;DHT22;18152;49.986;8.646;2023-07-20T11:14:10;21.20;99.90
31542;DHT22;18152;49.986;8.646;2023-07-20T11:16:46;21.60;99.90
31542;DHT22;18152;49.986;8.646;2023-07-20T11:21:46;22.50;99.90
31542;DHT22;18152;49.986;8.646;2023-07-20T11:24:12;22.80;99.90
31542;DHT22;18152;49.986;8.646;2023-07-20T11:26:48;23.80;99.50
31542;DHT22;18152;49.986;8.646;2023-07-20T11:29:16;24.50;98.20
31542;DHT22;18152;49.986;8.646;2023-07-20T11:31:43;24.70;97.70
31542;DHT22;18152;49.986;8.646;2023-07-20T11:34:14;24.30;96.10
31542;DHT22;18152;49.986;8.646;2023-07-20T11:36:41;23.90;95.80
31542;DHT22;18152;49.986;8.646;2023-07-20T11:39:11;23.70;97.20
31542;DHT22;18152;49.986;8.646;2023-07-20T11:41:38;23.40;97.80
31542;DHT22;18152;49.986;8.646;2023-07-20T11:44:05;23.00;99.90
31542;DHT22;18152;49.986;8.646;2023-07-20T11:46:39;22.90;99.90
31542;DHT22;18152;49.986;8.646;2023-07-20T11:49:05;22.50;99.90
31542;DHT22;18152;49.986;8.646;2023-07-20T11:51:31;22.20;99.90
31542;DHT22;18152;49.986;8.646;2023-07-20T11:53:58;22.10;99.90
31542;DHT22;18152;49.986;8.646;2023-07-20T11:56:26;22.10;99.90
31542;DHT22;18152;49.986;8.646;2023-07-20T11:58:57;21.90;99.90
31542;DHT22;18152;49.986;8.646;2023-07-20T12:01:25;21.90;99.90
31542;DHT22;18152;49.986;8.646;2023-07-20T12:03:55;22.00;99.90
31542;DHT22;18152;49.986;8.646;2023-07-20T12:06:25;23.00;99.70
31542;DHT22;18152;49.986;8.646;2023-07-20T12:08:54;23.90;99.40
31542;DHT22;18152;49.986;8.646;2023-07-20T12:11:38;24.70;90.80
31542;DHT22;18152;49.986;8.646;2023-07-20T12:14:07;24.80;94.20
31542;DHT22;18152;49.986;8.646;2023-07-20T12:16:34;25.30;95.40
31542;DHT22;18152;49.986;8.646;2023-07-20T12:19:05;25.70;95.10
31542;DHT22;18152;49.986;8.646;2023-07-20T12:21:31;25.10;91.80
31542;DHT22;18152;49.986;8.646;2023-07-20T12:23:59;24.80;95.30
31542;DHT22;18152;49.986;8.646;2023-07-20T12:26:26;24.70;95.70
31542;DHT22;18152;49.986;8.646;2023-07-20T12:28:54;24.40;93.80
31542;DHT22;18152;49.986;8.646;2023-07-20T12:31:19;24.70;96.00
31542;DHT22;18152;49.986;8.646;2023-07-20T12:33:46;25.40;93.90
31542;DHT22;18152;49.986;8.646;2023-07-20T12:36:12;25.70;93.60
31542;DHT22;18152;49.986;8.646;2023-07-20T12:38:37;26.00;91.30
31542;DHT22;18152;49.986;8.646;2023-07-20T12:41:03;26.20;90.70
31542;DHT22;18152;49.986;8.646;2023-07-20T12:43:29;26.60;93.50
31542;DHT22;18152;49.986;8.646;2023-07-20T12:45:55;27.30;92.50
31542;DHT22;18152;49.986;8.646;2023-07-20T12:48:21;27.50;89.30
31542;DHT22;18152;49.986;8.646;2023-07-20T12:50:47;27.00;90.20
31542;DHT22;18152;49.986;8.646;2023-07-20T12:53:13;25.90;92.90
31542;DHT22;18152;49.986;8.646;2023-07-20T12:55:38;25.50;92.30
31542;DHT22;18152;49.986;8.646;2023-07-20T12:58:05;24.60;87.00
31542;DHT22;18152;49.986;8.646;2023-07-20T13:00:30;24.30;91.70
31542;DHT22;18152;49.986;8.646;2023-07-20T13:02:57;24.10;95.10
31542;DHT22;18152;49.986;8.646;2023-07-20T13:05:23;23.70;96.80
31542;DHT22;18152;49.986;8.646;2023-07-20T13:07:49;23.60;98.20
31542;DHT22;18152;49.986;8.646;2023-07-20T13:10:14;23.40;97.60
31542;DHT22;18152;49.986;8.646;2023-07-20T13:12:40;23.30;98.30
31542;DHT22;18152;49.986;8.646;2023-07-20T13:15:07;23.40;97.00
31542;DHT22;18152;49.986;8.646;2023-07-20T13:17:34;23.30;97.60
31542;DHT22;18152;49.986;8.646;2023-07-20T13:19:59;23.30;97.50
31542;DHT22;18152;49.986;8.646;2023-07-20T13:22:25;23.20;95.80
31542;DHT22;18152;49.986;8.646;2023-07-20T13:24:52;22.90;93.70
31542;DHT22;18152;49.986;8.646;2023-07-20T13:27:18;22.80;99.50
31542;DHT22;18152;49.986;8.646;2023-07-20T13:29:44;22.40;99.90
31542;DHT22;18152;49.986;8.646;2023-07-20T13:32:12;22.30;98.00
31542;DHT22;18152;49.986;8.646;2023-07-20T13:34:38;22.00;99.90
31542;DHT22;18152;49.986;8.646;2023-07-20T13:37:04;21.90;99.90
31542;DHT22;18152;49.986;8.646;2023-07-20T13:39:30;21.70;99.90
31542;DHT22;18152;49.986;8.646;2023-07-20T13:41:55;21.80;99.90
31542;DHT22;18152;49.986;8.646;2023-07-20T13:44:21;22.00;99.90
31542;DHT22;18152;49.986;8.646;2023-07-20T13:46:48;21.90;99.90
31542;DHT22;18152;49.986;8.646;2023-07-20T13:49:13;21.90;95.40
31542;DHT22;18152;49.986;8.646;2023-07-20T13:51:40;22.50;97.00
31542;DHT22;18152;49.986;8.646;2023-07-20T13:54:06;23.40;96.40
31542;DHT22;18152;49.986;8.646;2023-07-20T13:56:32;24.10;92.40
31542;DHT22;18152;49.986;8.646;2023-07-20T13:58:57;24.40;92.50
31542;DHT22;18152;49.986;8.646;2023-07-20T14:01:23;24.40;93.70
31542;DHT22;18152;49.986;8.646;2023-07-20T14:03:50;23.90;85.60
31542;DHT22;18152;49.986;8.646;2023-07-20T14:06:16;23.30;90.80
31542;DHT22;18152;49.986;8.646;2023-07-20T14:08:41;23.30;91.70
31542;DHT22;18152;49.986;8.646;2023-07-20T14:11:07;23.80;86.70
31542;DHT22;18152;49.986;8.646;2023-07-20T14:13:33;24.00;87.60
31542;DHT22;18152;49.986;8.646;2023-07-20T14:15:58;23.70;92.90
31542;DHT22;18152;49.986;8.646;2023-07-20T14:18:24;23.60;95.70
31542;DHT22;18152;49.986;8.646;2023-07-20T14:20:50;23.90;94.00
31542;DHT22;18152;49.986;8.646;2023-07-20T14:23:15;24.30;92.60
31542;DHT22;18152;49.986;8.646;2023-07-20T14:25:41;24.60;93.10
31542;DHT22;18152;49.986;8.646;2023-07-20T14:28:08;24.80;91.90
31542;DHT22;18152;49.986;8.646;2023-07-20T14:30:33;24.60;93.60
31542;DHT22;18152;49.986;8.646;2023-07-20T14:32:59;24.60;94.80
31542;DHT22;18152;49.986;8.646;2023-07-20T14:35:25;24.20;88.70
31542;DHT22;18152;49.986;8.646;2023-07-20T14:37:51;24.10;84.50
31542;DHT22;18152;49.986;8.646;2023-07-20T14:40:16;24.40;89.10
31542;DHT22;18152;49.986;8.646;2023-07-20T14:42:42;24.40;80.30
31542;DHT22;18152;49.986;8.646;2023-07-20T14:45:07;24.20;82.00
31542;DHT22;18152;49.986;8.646;2023-07-20T14:47:33;24.40;89.10
31542;DHT22;18152;49.986;8.646;2023-07-20T14:50:01;24.80;90.40
31542;DHT22;18152;49.986;8.646;2023-07-20T14:52:27;24.40;77.50
31542;DHT22;18152;49.986;8.646;2023-07-20T14:54:54;23.60;77.10
31542;DHT22;18152;49.986;8.646;2023-07-20T14:57:20;23.20;79.70
31542;DHT22;18152;49.986;8.646;2023-07-20T14:59:47;23.10;79.60
31542;DHT22;18152;49.986;8.646;2023-07-20T15:02:12;22.80;89.70
31542;DHT22;18152;49.986;8.646;2023-07-20T15:04:48;22.70;81.60
31542;DHT22;18152;49.986;8.646;2023-07-20T15:07:18;22.70;91.00
31542;DHT22;18152;49.986;8.646;2023-07-20T15:09:52;22.60;91.40
31542;DHT22;18152;49.986;8.646;2023-07-20T15:12:18;22.50;96.10
31542;DHT22;18152;49.986;8.646;2023-07-20T15:14:43;22.40;93.10
31542;DHT22;18152;49.986;8.646;2023-07-20T15:17:12;22.40;95.20
31542;DHT22;18152;49.986;8.646;2023-07-20T15:19:38;22.20;98.70
31542;DHT22;18152;49.986;8.646;2023-07-20T15:22:07;22.10;99.10
31542;DHT22;18152;49.986;8.646;2023-07-20T15:24:34;21.90;99.50
31542;DHT22;18152;49.986;8.646;2023-07-20T15:27:01;21.80;98.50
31542;DHT22;18152;49.986;8.646;2023-07-20T15:29:28;21.80;98.30
31542;DHT22;18152;49.986;8.646;2023-07-20T15:31:53;21.70;95.30
31542;DHT22;18152;49.986;8.646;2023-07-20T15:34:19;21.80;97.90
31542;DHT22;18152;49.986;8.646;2023-07-20T15:36:45;21.80;97.10
31542;DHT22;18152;49.986;8.646;2023-07-20T15:39:11;21.80;99.30
31542;DHT22;18152;49.986;8.646;2023-07-20T15:41:36;21.80;99.50
31542;DHT22;18152;49.986;8.646;2023-07-20T15:44:02;21.80;99.70
31542;DHT22;18152;49.986;8.646;2023-07-20T15:49:07;21.70;99.90
31542;DHT22;18152;49.986;8.646;2023-07-20T15:51:35;21.70;99.80
31542;DHT22;18152;49.986;8.646;2023-07-20T15:54:08;21.80;95.20
31542;DHT22;18152;49.986;8.646;2023-07-20T15:56:36;21.70;98.30
31542;DHT22;18152;49.986;8.646;2023-07-20T15:59:02;21.70;97.10
31542;DHT22;18152;49.986;8.646;2023-07-20T16:01:27;21.60;99.90
31542;DHT22;18152;49.986;8.646;2023-07-20T16:03:54;21.60;99.90
31542;DHT22;18152;49.986;8.646;2023-07-20T16:06:20;21.50;97.20
31542;DHT22;18152;49.986;8.646;2023-07-20T16:08:45;21.50;99.90
31542;DHT22;18152;49.986;8.646;2023-07-20T16:11:11;21.60;99.90
31542;DHT22;18152;49.986;8.646;2023-07-20T16:13:37;22.00;95.60
31542;DHT22;18152;49.986;8.646;2023-07-20T16:16:02;22.00;99.10
31542;DHT22;18152;49.986;8.646;2023-07-20T16:18:28;22.20;96.80
31542;DHT22;18152;49.986;8.646;2023-07-20T16:20:55;22.50;89.90
31542;DHT22;18152;49.986;8.646;2023-07-20T16:23:21;22.70;87.00
31542;DHT22;18152;49.986;8.646;2023-07-20T16:25:47;22.50;94.10
31542;DHT22;18152;49.986;8.646;2023-07-20T16:28:13;22.30;96.10
31542;DHT22;18152;49.986;8.646;2023-07-20T16:30:39;22.10;98.20
31542;DHT22;18152;49.986;8.646;2023-07-20T16:33:05;22.10;98.30
31542;DHT22;18152;49.986;8.646;2023-07-20T16:35:36;22.30;93.30
31542;DHT22;18152;49.986;8.646;2023-07-20T16:38:02;22.20;94.40
31542;DHT22;18152;49.986;8.646;2023-07-20T16:40:27;22.20;92.10
31542;DHT22;18152;49.986;8.646;2023-07-20T16:42:53;22.20;94.70
31542;DHT22;18152;49.986;8.646;2023-07-20T16:45:19;21.90;93.60
31542;DHT22;18152;49.986;8.646;2023-07-20T16:47:44;22.00;94.00
31542;DHT22;18152;49.986;8.646;2023-07-20T16:50:10;22.10;92.80
31542;DHT22;18152;49.986;8.646;2023-07-20T16:52:35;22.00;87.90
31542;DHT22;18152;49.986;8.646;2023-07-20T16:55:01;21.90;94.30
31542;DHT22;18152;49.986;8.646;2023-07-20T16:57:27;21.80;98.00
31542;DHT22;18152;49.986;8.646;2023-07-20T16:59:52;21.60;91.10
31542;DHT22;18152;49.986;8.646;2023-07-20T17:02:18;21.70;96.90
31542;DHT22;18152;49.986;8.646;2023-07-20T17:04:47;21.70;97.80
31542;DHT22;18152;49.986;8.646;2023-07-20T17:07:13;21.80;96.00
31542;DHT22;18152;49.986;8.646;2023-07-20T17:09:40;21.70;98.20
31542;DHT22;18152;49.986;8.646;2023-07-20T17:12:07;21.70;97.90
31542;DHT22;18152;49.986;8.646;2023-07-20T17:14:33;21.60;99.90
31542;DHT22;18152;49.986;8.646;2023-07-20T17:16:59;21.60;97.00
31542;DHT22;18152;49.986;8.646;2023-07-20T17:19:25;21.50;99.90
31542;DHT22;18152;49.986;8.646;2023-07-20T17:21:51;21.40;98.80
31542;DHT22;18152;49.986;8.646;2023-07-20T17:24:16;21.30;99.90
31542;DHT22;18152;49.986;8.646;2023-07-20T17:26:42;21.20;98.70
31542;DHT22;18152;49.986;8.646;2023-07-20T17:29:07;21.00;99.90
31542;DHT22;18152;49.986;8.646;2023-07-20T17:31:33;20.90;99.90
31542;DHT22;18152;49.986;8.646;2023-07-20T17:33:59;20.90;99.90
31542;DHT22;18152;49.986;8.646;2023-07-20T17:36:25;20.80;98.80
31542;DHT22;18152;49.986;8.646;2023-07-20T17:38:51;20.80;98.40
31542;DHT22;18152;49.986;8.646;2023-07-20T17:41:16;21.00;95.40
31542;DHT22;18152;49.986;8.646;2023-07-20T17:43:42;21.00;99.00
31542;DHT22;18152;49.986;8.646;2023-07-20T17:46:07;20.90;99.10
31542;DHT22;18152;49.986;8.646;2023-07-20T17:48:33;21.00;97.70
31542;DHT22;18152;49.986;8.646;2023-07-20T17:50:59;21.00;95.30
31542;DHT22;18152;49.986;8.646;2023-07-20T17:53:24;21.00;96.50
31542;DHT22;18152;49.986;8.646;2023-07-20T17:55:51;21.10;97.80
31542;DHT22;18152;49.986;8.646;2023-07-20T17:58:17;21.20;92.70
31542;DHT22;18152;49.986;8.646;2023-07-20T18:00:43;21.20;95.60
31542;DHT22;18152;49.986;8.646;2023-07-20T18:03:08;21.20;95.00
31542;DHT22;18152;49.986;8.646;2023-07-20T18:05:34;21.30;91.90
31542;DHT22;18152;49.986;8.646;2023-07-20T18:07:59;21.30;92.80
31542;DHT22;18152;49.986;8.646;2023-07-20T18:10:25;21.30;93.80
31542;DHT22;18152;49.986;8.646;2023-07-20T18:12:51;21.30;92.60
31542;DHT22;18152;49.986;8.646;2023-07-20T18:15:17;21.10;97.40
31542;DHT22;18152;49.986;8.646;2023-07-20T18:17:43;21.10;93.80
31542;DHT22;18152;49.986;8.646;2023-07-20T18:20:09;21.00;95.70
31542;DHT22;18152;49.986;8.646;2023-07-20T18:22:35;21.10;94.30
31542;DHT22;18152;49.986;8.646;2023-07-20T18:25:01;21.00;95.60
31542;DHT22;18152;49.986;8.646;2023-07-20T18:27:27;21.00;95.80
31542;DHT22;18152;49.986;8.646;2023-07-20T18:29:53;21.00;92.50
31542;DHT22;18152;49.986;8.646;2023-07-20T18:32:19;21.00;93.40
31542;DHT22;18152;49.986;8.646;2023-07-20T18:34:45;21.00;93.90
31542;DHT22;18152;49.986;8.646;2023-07-20T18:37:11;21.00;94.60
31542;DHT22;18152;49.986;8.646;2023-07-20T18:39:37;20.90;93.80
31542;DHT22;18152;49.986;8.646;2023-07-20T18:42:02;20.90;93.60
31542;DHT22;18152;49.986;8.646;2023-07-20T18:44:29;21.00;92.60
31542;DHT22;18152;49.986;8.646;2023-07-20T18:46:54;21.00;90.90
31542;DHT22;18152;49.986;8.646;2023-07-20T18:49:22;21.10;91.10
31542;DHT22;18152;49.986;8.646;2023-07-20T18:51:48;21.00;90.60
31542;DHT22;18152;49.986;8.646;2023-07-20T18:54:14;20.90;93.70
31542;DHT22;18152;49.986;8.646;2023-07-20T18:56:41;20.80;92.90
31542;DHT22;18152;49.986;8.646;2023-07-20T18:59:07;20.80;92.80
31542;DHT22;18152;49.986;8.646;2023-07-20T19:01:33;20.70;96.50
31542;DHT22;18152;49.986;8.646;2023-07-20T19:03:58;20.60;96.60
31542;DHT22;18152;49.986;8.646;2023-07-20T19:06:24;20.60;96.40
31542;DHT22;18152;49.986;8.646;2023-07-20T19:08:49;20.60;94.60
31542;DHT22;18152;49.986;8.646;2023-07-20T19:11:15;20.50;95.60
31542;DHT22;18152;49.986;8.646;2023-07-20T19:13:40;20.50;97.10
31542;DHT22;18152;49.986;8.646;2023-07-20T19:16:06;20.40;96.70
31542;DHT22;18152;49.986;8.646;2023-07-20T19:18:33;20.40;98.00
31542;DHT22;18152;49.986;8.646;2023-07-20T19:21:00;20.30;98.00
31542;DHT22;18152;49.986;8.646;2023-07-20T19:23:26;20.30;98.70
31542;DHT22;18152;49.986;8.646;2023-07-20T19:25:52;20.20;99.40
31542;DHT22;18152;49.986;8.646;2023-07-20T19:28:22;20.10;99.80
31542;DHT22;18152;49.986;8.646;2023-07-20T19:30:48;20.10;97.50
31542;DHT22;18152;49.986;8.646;2023-07-20T19:33:13;20.00;98.00
31542;DHT22;18152;49.986;8.646;2023-07-20T19:35:39;20.00;97.10
31542;DHT22;18152;49.986;8.646;2023-07-20T19:38:05;20.00;96.10
31542;DHT22;18152;49.986;8.646;2023-07-20T19:40:32;20.00;97.10
31542;DHT22;18152;49.986;8.646;2023-07-20T19:42:59;20.00;96.70
31542;DHT22;18152;49.986;8.646;2023-07-20T19:45:24;20.10;96.80
31542;DHT22;18152;49.986;8.646;2023-07-20T19:47:50;20.00;99.00
31542;DHT22;18152;49.986;8.646;2023-07-20T19:50:16;20.00;97.70
31542;DHT22;18152;49.986;8.646;2023-07-20T19:52:42;19.90;97.30
31542;DHT22;18152;49.986;8.646;2023-07-20T19:55:09;19.90;98.60
31542;DHT22;18152;49.986;8.646;2023-07-20T19:57:36;20.00;97.20
31542;DHT22;18152;49.986;8.646;2023-07-20T20:00:01;19.90;96.90
31542;DHT22;18152;49.986;8.646;2023-07-20T20:02:29;19.90;98.70
31542;DHT22;18152;49.986;8.646;2023-07-20T20:04:54;19.90;99.10
31542;DHT22;18152;49.986;8.646;2023-07-20T20:07:20;19.80;99.20
31542;DHT22;18152;49.986;8.646;2023-07-20T20:09:46;19.80;98.80
31542;DHT22;18152;49.986;8.646;2023-07-20T20:12:11;19.70;99.90
31542;DHT22;18152;49.986;8.646;2023-07-20T20:14:37;19.70;99.90
31542;DHT22;18152;49.986;8.646;2023-07-20T20:17:03;19.70;99.80
31542;DHT22;18152;49.986;8.646;2023-07-20T20:19:30;19.60;99.90
31542;DHT22;18152;49.986;8.646;2023-07-20T20:21:56;19.60;98.30
31542;DHT22;18152;49.986;8.646;2023-07-20T20:24:26;19.60;99.00
31542;DHT22;18152;49.986;8.646;2023-07-20T20:26:51;19.60;97.40
31542;DHT22;18152;49.986;8.646;2023-07-20T20:29:17;19.70;98.00
31542;DHT22;18152;49.986;8.646;2023-07-20T20:31:43;19.60;98.90
31542;DHT22;18152;49.986;8.646;2023-07-20T20:34:09;19.60;98.90
31542;DHT22;18152;49.986;8.646;2023-07-20T20:36:34;19.60;99.90
31542;DHT22;18152;49.986;8.646;2023-07-20T20:39:00;19.60;99.50